sensor_id;sensor_type;location;lat;lon;timestamp;P1;durP1;ratioP1;P2;durP2;ratioP2
17650;SDS011;26663;59.302;18.082;2022-11-12T00:02:59;5.38;;;2.08;;
17650;SDS011;26663;59.302;18.082;2022-11-12T00:06:22;5.47;;;1.98;;
17650;SDS011;26663;59.302;18.082;2022-11-12T00:09:46;4.88;;;1.95;;
17650;SDS011;26663;59.302;18.082;2022-11-12T00:13:10;4.03;;;1.77;;
17650;SDS011;26663;59.302;18.082;2022-11-12T00:16:34;3.08;;;1.50;;
17650;SDS011;26663;59.302;18.082;2022-11-12T00:19:58;9.52;;;1.90;;
17650;SDS011;26663;59.302;18.082;2022-11-12T00:23:22;3.15;;;2.08;;
17650;SDS011;26663;59.302;18.082;2022-11-12T00:26:45;2.70;;;1.50;;
17650;SDS011;26663;59.302;18.082;2022-11-12T00:30:09;7.00;;;2.00;;
17650;SDS011;26663;59.302;18.082;2022-11-12T00:33:37;3.25;;;2.13;;
17650;SDS011;26663;59.302;18.082;2022-11-12T00:37:04;5.38;;;1.90;;
17650;SDS011;26663;59.302;18.082;2022-11-12T00:40:27;8.07;;;1.83;;
17650;SDS011;26663;59.302;18.082;2022-11-12T00:43:51;4.50;;;2.00;;
17650;SDS011;26663;59.302;18.082;2022-11-12T00:47:15;7.20;;;1.80;;
17650;SDS011;26663;59.302;18.082;2022-11-12T00:50:38;8.00;;;2.10;;
17650;SDS011;26663;59.302;18.082;2022-11-12T00:54:03;4.28;;;1.70;;
17650;SDS011;26663;59.302;18.082;2022-11-12T00:57:28;4.05;;;1.55;;
17650;SDS011;26663;59.302;18.082;2022-11-12T01:00:51;3.28;;;2.22;;
17650;SDS011;26663;59.302;18.082;2022-11-12T01:04:15;5.07;;;1.88;;
17650;SDS011;26663;59.302;18.082;2022-11-12T01:07:39;8.05;;;1.77;;
17650;SDS011;26663;59.302;18.082;2022-11-12T01:11:08;5.75;;;1.90;;
17650;SDS011;26663;59.302;18.082;2022-11-12T01:14:36;6.57;;;2.03;;
17650;SDS011;26663;59.302;18.082;2022-11-12T01:18:00;5.53;;;1.92;;
17650;SDS011;26663;59.302;18.082;2022-11-12T01:21:42;2.55;;;1.60;;
17650;SDS011;26663;59.302;18.082;2022-11-12T01:25:08;5.57;;;1.67;;
17650;SDS011;26663;59.302;18.082;2022-11-12T01:28:33;5.43;;;1.95;;
17650;SDS011;26663;59.302;18.082;2022-11-12T01:31:57;9.43;;;2.08;;
17650;SDS011;26663;59.302;18.082;2022-11-12T01:35:21;2.90;;;1.63;;
17650;SDS011;26663;59.302;18.082;2022-11-12T01:38:45;8.82;;;2.22;;
17650;SDS011;26663;59.302;18.082;2022-11-12T01:42:10;4.82;;;1.67;;
17650;SDS011;26663;59.302;18.082;2022-11-12T01:45:35;3.72;;;1.92;;
17650;SDS011;26663;59.302;18.082;2022-11-12T01:49:00;4.60;;;1.75;;
17650;SDS011;26663;59.302;18.082;2022-11-12T01:52:28;4.25;;;1.77;;
17650;SDS011;26663;59.302;18.082;2022-11-12T01:55:56;8.60;;;2.08;;
17650;SDS011;26663;59.302;18.082;2022-11-12T01:59:21;5.20;;;1.60;;
17650;SDS011;26663;59.302;18.082;2022-11-12T02:02:53;8.95;;;2.53;;
17650;SDS011;26663;59.302;18.082;2022-11-12T02:06:20;6.10;;;2.20;;
17650;SDS011;26663;59.302;18.082;2022-11-12T02:09:44;6.60;;;2.28;;
17650;SDS011;26663;59.302;18.082;2022-11-12T02:13:09;3.22;;;1.50;;
17650;SDS011;26663;59.302;18.082;2022-11-12T02:16:50;6.75;;;2.03;;
17650;SDS011;26663;59.302;18.082;2022-11-12T02:20:17;5.38;;;1.73;;
17650;SDS011;26663;59.302;18.082;2022-11-12T02:23:43;2.55;;;1.80;;
17650;SDS011;26663;59.302;18.082;2022-11-12T02:27:07;7.28;;;1.85;;
17650;SDS011;26663;59.302;18.082;2022-11-12T02:30:32;5.88;;;1.77;;
17650;SDS011;26663;59.302;18.082;2022-11-12T02:33:59;8.73;;;2.58;;
17650;SDS011;26663;59.302;18.082;2022-11-12T02:37:23;4.85;;;2.17;;
17650;SDS011;26663;59.302;18.082;2022-11-12T02:40:48;4.15;;;1.80;;
17650;SDS011;26663;59.302;18.082;2022-11-12T02:44:12;10.57;;;2.22;;
17650;SDS011;26663;59.302;18.082;2022-11-12T02:47:37;9.45;;;2.35;;
17650;SDS011;26663;59.302;18.082;2022-11-12T02:51:00;7.28;;;2.65;;
17650;SDS011;26663;59.302;18.082;2022-11-12T02:54:24;7.07;;;1.98;;
17650;SDS011;26663;59.302;18.082;2022-11-12T02:57:49;6.45;;;2.20;;
17650;SDS011;26663;59.302;18.082;2022-11-12T03:01:12;8.82;;;2.15;;
17650;SDS011;26663;59.302;18.082;2022-11-12T03:04:36;9.00;;;2.30;;
17650;SDS011;26663;59.302;18.082;2022-11-12T03:08:00;9.15;;;2.25;;
17650;SDS011;26663;59.302;18.082;2022-11-12T03:11:25;4.53;;;2.33;;
17650;SDS011;26663;59.302;18.082;2022-11-12T03:14:50;10.15;;;2.80;;
17650;SDS011;26663;59.302;18.082;2022-11-12T03:18:23;8.52;;;2.53;;
17650;SDS011;26663;59.302;18.082;2022-11-12T03:21:47;6.13;;;2.15;;
17650;SDS011;26663;59.302;18.082;2022-11-12T03:25:14;7.47;;;2.50;;
17650;SDS011;26663;59.302;18.082;2022-11-12T03:28:38;8.52;;;2.70;;
17650;SDS011;26663;59.302;18.082;2022-11-12T03:32:04;6.80;;;2.30;;
17650;SDS011;26663;59.302;18.082;2022-11-12T03:35:27;5.15;;;2.08;;
17650;SDS011;26663;59.302;18.082;2022-11-12T03:38:51;8.40;;;2.40;;
17650;SDS011;26663;59.302;18.082;2022-11-12T03:42:14;13.70;;;2.38;;
17650;SDS011;26663;59.302;18.082;2022-11-12T03:45:39;7.18;;;2.00;;
17650;SDS011;26663;59.302;18.082;2022-11-12T03:49:03;9.45;;;2.20;;
17650;SDS011;26663;59.302;18.082;2022-11-12T03:52:27;9.25;;;2.35;;
17650;SDS011;26663;59.302;18.082;2022-11-12T03:55:50;9.13;;;2.53;;
17650;SDS011;26663;59.302;18.082;2022-11-12T03:59:14;9.07;;;2.30;;
17650;SDS011;26663;59.302;18.082;2022-11-12T04:02:37;8.27;;;2.17;;
17650;SDS011;26663;59.302;18.082;2022-11-12T04:06:02;6.95;;;2.35;;
17650;SDS011;26663;59.302;18.082;2022-11-12T04:09:43;4.88;;;2.00;;
17650;SDS011;26663;59.302;18.082;2022-11-12T04:13:08;5.95;;;2.20;;
17650;SDS011;26663;59.302;18.082;2022-11-12T04:16:49;8.32;;;2.60;;
17650;SDS011;26663;59.302;18.082;2022-11-12T04:20:36;9.63;;;2.13;;
17650;SDS011;26663;59.302;18.082;2022-11-12T04:24:24;8.13;;;2.50;;
17650;SDS011;26663;59.302;18.082;2022-11-12T04:28:07;13.18;;;2.58;;
17650;SDS011;26663;59.302;18.082;2022-11-12T04:31:31;7.25;;;2.30;;
17650;SDS011;26663;59.302;18.082;2022-11-12T04:34:54;6.43;;;2.28;;
17650;SDS011;26663;59.302;18.082;2022-11-12T04:38:18;5.50;;;2.10;;
17650;SDS011;26663;59.302;18.082;2022-11-12T04:41:44;10.32;;;2.55;;
17650;SDS011;26663;59.302;18.082;2022-11-12T04:45:25;9.65;;;3.28;;
17650;SDS011;26663;59.302;18.082;2022-11-12T04:48:49;9.68;;;2.72;;
17650;SDS011;26663;59.302;18.082;2022-11-12T04:52:13;7.72;;;2.13;;
17650;SDS011;26663;59.302;18.082;2022-11-12T04:55:36;7.82;;;2.35;;
17650;SDS011;26663;59.302;18.082;2022-11-12T04:59:01;8.82;;;2.10;;
17650;SDS011;26663;59.302;18.082;2022-11-12T05:02:25;10.57;;;2.40;;
17650;SDS011;26663;59.302;18.082;2022-11-12T05:05:49;17.13;;;2.90;;
17650;SDS011;26663;59.302;18.082;2022-11-12T05:09:13;8.50;;;2.40;;
17650;SDS011;26663;59.302;18.082;2022-11-12T05:12:37;5.78;;;2.45;;
17650;SDS011;26663;59.302;18.082;2022-11-12T05:16:02;7.50;;;2.90;;
17650;SDS011;26663;59.302;18.082;2022-11-12T05:19:26;8.93;;;2.15;;
17650;SDS011;26663;59.302;18.082;2022-11-12T05:22:49;9.25;;;2.50;;
17650;SDS011;26663;59.302;18.082;2022-11-12T05:26:27;14.50;;;3.03;;
17650;SDS011;26663;59.302;18.082;2022-11-12T05:29:51;10.13;;;2.78;;
17650;SDS011;26663;59.302;18.082;2022-11-12T05:33:20;6.50;;;2.50;;
17650;SDS011;26663;59.302;18.082;2022-11-12T05:36:44;8.40;;;1.95;;
17650;SDS011;26663;59.302;18.082;2022-11-12T05:40:08;13.45;;;2.72;;
17650;SDS011;26663;59.302;18.082;2022-11-12T05:43:33;12.98;;;3.08;;
17650;SDS011;26663;59.302;18.082;2022-11-12T05:46:57;10.52;;;2.60;;
17650;SDS011;26663;59.302;18.082;2022-11-12T05:50:22;7.03;;;2.20;;
17650;SDS011;26663;59.302;18.082;2022-11-12T05:53:55;9.57;;;2.67;;
17650;SDS011;26663;59.302;18.082;2022-11-12T05:57:18;11.27;;;2.88;;
17650;SDS011;26663;59.302;18.082;2022-11-12T06:00:42;9.40;;;2.25;;
17650;SDS011;26663;59.302;18.082;2022-11-12T06:04:06;8.90;;;2.75;;
17650;SDS011;26663;59.302;18.082;2022-11-12T06:07:30;17.70;;;3.00;;
17650;SDS011;26663;59.302;18.082;2022-11-12T06:10:54;10.75;;;3.13;;
17650;SDS011;26663;59.302;18.082;2022-11-12T06:14:17;11.52;;;2.60;;
17650;SDS011;26663;59.302;18.082;2022-11-12T06:17:41;9.15;;;2.60;;
17650;SDS011;26663;59.302;18.082;2022-11-12T06:21:06;11.93;;;2.95;;
17650;SDS011;26663;59.302;18.082;2022-11-12T06:24:45;12.93;;;2.92;;
17650;SDS011;26663;59.302;18.082;2022-11-12T06:28:14;16.10;;;2.72;;
17650;SDS011;26663;59.302;18.082;2022-11-12T06:31:38;14.07;;;3.50;;
17650;SDS011;26663;59.302;18.082;2022-11-12T06:35:02;11.40;;;3.08;;
17650;SDS011;26663;59.302;18.082;2022-11-12T06:38:26;14.02;;;3.00;;
17650;SDS011;26663;59.302;18.082;2022-11-12T06:41:51;7.45;;;2.72;;
17650;SDS011;26663;59.302;18.082;2022-11-12T06:45:15;11.57;;;3.75;;
17650;SDS011;26663;59.302;18.082;2022-11-12T06:48:40;13.27;;;3.20;;
17650;SDS011;26663;59.302;18.082;2022-11-12T06:52:03;12.90;;;3.25;;
17650;SDS011;26663;59.302;18.082;2022-11-12T06:55:27;16.65;;;3.33;;
17650;SDS011;26663;59.302;18.082;2022-11-12T06:58:52;12.38;;;2.80;;
17650;SDS011;26663;59.302;18.082;2022-11-12T07:02:15;18.15;;;3.05;;
17650;SDS011;26663;59.302;18.082;2022-11-12T07:05:39;15.43;;;2.92;;
17650;SDS011;26663;59.302;18.082;2022-11-12T07:09:04;13.38;;;3.08;;
17650;SDS011;26663;59.302;18.082;2022-11-12T07:12:28;14.57;;;3.25;;
17650;SDS011;26663;59.302;18.082;2022-11-12T07:15:53;17.55;;;3.38;;
17650;SDS011;26663;59.302;18.082;2022-11-12T07:19:19;10.75;;;3.05;;
17650;SDS011;26663;59.302;18.082;2022-11-12T07:22:42;14.27;;;3.00;;
17650;SDS011;26663;59.302;18.082;2022-11-12T07:26:09;20.05;;;2.80;;
17650;SDS011;26663;59.302;18.082;2022-11-12T07:29:37;17.33;;;3.35;;
17650;SDS011;26663;59.302;18.082;2022-11-12T07:33:13;12.63;;;3.22;;
17650;SDS011;26663;59.302;18.082;2022-11-12T07:36:36;9.82;;;2.72;;
17650;SDS011;26663;59.302;18.082;2022-11-12T07:40:00;14.77;;;3.15;;
17650;SDS011;26663;59.302;18.082;2022-11-12T07:43:24;13.10;;;3.05;;
17650;SDS011;26663;59.302;18.082;2022-11-12T07:46:48;18.08;;;3.60;;
17650;SDS011;26663;59.302;18.082;2022-11-12T07:50:13;10.57;;;3.25;;
17650;SDS011;26663;59.302;18.082;2022-11-12T07:53:36;13.23;;;3.35;;
17650;SDS011;26663;59.302;18.082;2022-11-12T07:56:59;13.25;;;3.10;;
17650;SDS011;26663;59.302;18.082;2022-11-12T08:00:23;11.98;;;2.85;;
17650;SDS011;26663;59.302;18.082;2022-11-12T08:03:46;14.65;;;3.50;;
17650;SDS011;26663;59.302;18.082;2022-11-12T08:07:12;15.10;;;3.50;;
17650;SDS011;26663;59.302;18.082;2022-11-12T08:10:36;12.75;;;3.10;;
17650;SDS011;26663;59.302;18.082;2022-11-12T08:14:00;12.02;;;2.85;;
17650;SDS011;26663;59.302;18.082;2022-11-12T08:17:24;15.38;;;2.95;;
17650;SDS011;26663;59.302;18.082;2022-11-12T08:20:48;14.27;;;3.28;;
17650;SDS011;26663;59.302;18.082;2022-11-12T08:24:12;15.60;;;2.88;;
17650;SDS011;26663;59.302;18.082;2022-11-12T08:27:36;15.20;;;3.60;;
17650;SDS011;26663;59.302;18.082;2022-11-12T08:31:01;15.85;;;3.20;;
17650;SDS011;26663;59.302;18.082;2022-11-12T08:34:27;15.23;;;3.65;;
17650;SDS011;26663;59.302;18.082;2022-11-12T08:37:51;13.07;;;3.65;;
17650;SDS011;26663;59.302;18.082;2022-11-12T08:41:21;19.88;;;3.22;;
17650;SDS011;26663;59.302;18.082;2022-11-12T08:44:44;10.25;;;2.85;;
17650;SDS011;26663;59.302;18.082;2022-11-12T08:48:11;18.83;;;3.33;;
17650;SDS011;26663;59.302;18.082;2022-11-12T08:51:35;12.60;;;3.40;;
17650;SDS011;26663;59.302;18.082;2022-11-12T08:54:58;13.75;;;3.28;;
17650;SDS011;26663;59.302;18.082;2022-11-12T08:58:24;12.00;;;2.80;;
17650;SDS011;26663;59.302;18.082;2022-11-12T09:01:49;9.32;;;2.50;;
17650;SDS011;26663;59.302;18.082;2022-11-12T09:05:12;8.90;;;2.85;;
17650;SDS011;26663;59.302;18.082;2022-11-12T09:08:36;15.45;;;3.22;;
17650;SDS011;26663;59.302;18.082;2022-11-12T09:12:00;14.27;;;3.45;;
17650;SDS011;26663;59.302;18.082;2022-11-12T09:15:37;14.10;;;3.33;;
17650;SDS011;26663;59.302;18.082;2022-11-12T09:19:00;8.88;;;2.95;;
17650;SDS011;26663;59.302;18.082;2022-11-12T09:22:24;14.20;;;3.05;;
17650;SDS011;26663;59.302;18.082;2022-11-12T09:25:47;12.50;;;3.13;;
17650;SDS011;26663;59.302;18.082;2022-11-12T09:29:11;14.75;;;3.28;;
17650;SDS011;26663;59.302;18.082;2022-11-12T09:32:36;11.35;;;2.58;;
17650;SDS011;26663;59.302;18.082;2022-11-12T09:36:00;12.73;;;2.95;;
17650;SDS011;26663;59.302;18.082;2022-11-12T09:39:24;10.23;;;2.67;;
17650;SDS011;26663;59.302;18.082;2022-11-12T09:42:50;9.15;;;2.50;;
17650;SDS011;26663;59.302;18.082;2022-11-12T09:46:18;14.27;;;3.67;;
17650;SDS011;26663;59.302;18.082;2022-11-12T09:49:53;10.45;;;3.33;;
17650;SDS011;26663;59.302;18.082;2022-11-12T09:53:26;9.63;;;3.10;;
17650;SDS011;26663;59.302;18.082;2022-11-12T09:56:54;14.82;;;3.60;;
17650;SDS011;26663;59.302;18.082;2022-11-12T10:00:20;11.80;;;3.03;;
17650;SDS011;26663;59.302;18.082;2022-11-12T10:03:47;9.45;;;3.17;;
17650;SDS011;26663;59.302;18.082;2022-11-12T10:07:22;12.57;;;3.20;;
17650;SDS011;26663;59.302;18.082;2022-11-12T10:11:00;20.60;;;3.42;;
17650;SDS011;26663;59.302;18.082;2022-11-12T10:14:37;9.65;;;3.08;;
17650;SDS011;26663;59.302;18.082;2022-11-12T10:18:47;9.73;;;3.15;;
17650;SDS011;26663;59.302;18.082;2022-11-12T10:22:28;19.30;;;3.90;;
17650;SDS011;26663;59.302;18.082;2022-11-12T10:26:07;11.57;;;3.25;;
17650;SDS011;26663;59.302;18.082;2022-11-12T10:29:35;7.95;;;2.80;;
17650;SDS011;26663;59.302;18.082;2022-11-12T10:33:02;7.78;;;2.55;;
17650;SDS011;26663;59.302;18.082;2022-11-12T10:36:27;10.75;;;2.65;;
17650;SDS011;26663;59.302;18.082;2022-11-12T10:39:55;11.07;;;2.90;;
17650;SDS011;26663;59.302;18.082;2022-11-12T10:43:22;9.52;;;3.13;;
17650;SDS011;26663;59.302;18.082;2022-11-12T10:46:47;10.98;;;2.85;;
17650;SDS011;26663;59.302;18.082;2022-11-12T10:50:14;8.23;;;2.55;;
17650;SDS011;26663;59.302;18.082;2022-11-12T10:53:42;15.20;;;4.22;;
17650;SDS011;26663;59.302;18.082;2022-11-12T10:57:18;11.25;;;2.72;;
17650;SDS011;26663;59.302;18.082;2022-11-12T11:00:59;12.13;;;3.03;;
17650;SDS011;26663;59.302;18.082;2022-11-12T11:04:28;10.45;;;2.95;;
17650;SDS011;26663;59.302;18.082;2022-11-12T11:07:55;11.25;;;2.45;;
17650;SDS011;26663;59.302;18.082;2022-11-12T11:11:20;9.27;;;2.67;;
17650;SDS011;26663;59.302;18.082;2022-11-12T11:14:49;9.32;;;3.35;;
17650;SDS011;26663;59.302;18.082;2022-11-12T11:18:29;9.52;;;2.20;;
17650;SDS011;26663;59.302;18.082;2022-11-12T11:21:57;11.15;;;2.72;;
17650;SDS011;26663;59.302;18.082;2022-11-12T11:25:35;10.00;;;2.75;;
17650;SDS011;26663;59.302;18.082;2022-11-12T11:29:03;9.30;;;2.80;;
17650;SDS011;26663;59.302;18.082;2022-11-12T11:32:46;10.27;;;2.60;;
17650;SDS011;26663;59.302;18.082;2022-11-12T11:36:45;7.28;;;2.70;;
17650;SDS011;26663;59.302;18.082;2022-11-12T11:40:21;11.80;;;2.88;;
17650;SDS011;26663;59.302;18.082;2022-11-12T11:43:53;20.05;;;3.17;;
17650;SDS011;26663;59.302;18.082;2022-11-12T11:47:27;10.90;;;2.70;;
17650;SDS011;26663;59.302;18.082;2022-11-12T11:51:23;9.55;;;3.17;;
17650;SDS011;26663;59.302;18.082;2022-11-12T11:55:04;4.88;;;2.50;;
17650;SDS011;26663;59.302;18.082;2022-11-12T11:58:45;10.50;;;3.20;;
17650;SDS011;26663;59.302;18.082;2022-11-12T12:02:23;10.13;;;2.63;;
17650;SDS011;26663;59.302;18.082;2022-11-12T12:06:08;6.25;;;2.60;;
17650;SDS011;26663;59.302;18.082;2022-11-12T12:09:43;6.85;;;2.60;;
17650;SDS011;26663;59.302;18.082;2022-11-12T12:13:15;6.95;;;2.40;;
17650;SDS011;26663;59.302;18.082;2022-11-12T12:16:48;11.73;;;2.80;;
17650;SDS011;26663;59.302;18.082;2022-11-12T12:20:22;7.25;;;3.13;;
17650;SDS011;26663;59.302;18.082;2022-11-12T12:23:51;7.07;;;2.55;;
17650;SDS011;26663;59.302;18.082;2022-11-12T12:27:19;6.35;;;2.72;;
17650;SDS011;26663;59.302;18.082;2022-11-12T12:30:46;9.07;;;2.90;;
17650;SDS011;26663;59.302;18.082;2022-11-12T12:34:15;7.93;;;2.45;;
17650;SDS011;26663;59.302;18.082;2022-11-12T12:37:45;8.30;;;2.60;;
17650;SDS011;26663;59.302;18.082;2022-11-12T12:41:15;8.07;;;2.60;;
17650;SDS011;26663;59.302;18.082;2022-11-12T12:44:51;5.07;;;2.10;;
17650;SDS011;26663;59.302;18.082;2022-11-12T12:48:26;12.23;;;2.17;;
17650;SDS011;26663;59.302;18.082;2022-11-12T12:51:51;7.93;;;2.22;;
17650;SDS011;26663;59.302;18.082;2022-11-12T12:55:32;4.57;;;2.17;;
17650;SDS011;26663;59.302;18.082;2022-11-12T12:58:58;8.30;;;2.35;;
17650;SDS011;26663;59.302;18.082;2022-11-12T13:02:25;14.18;;;3.08;;
17650;SDS011;26663;59.302;18.082;2022-11-12T13:05:49;7.40;;;2.33;;
17650;SDS011;26663;59.302;18.082;2022-11-12T13:09:28;7.50;;;2.47;;
17650;SDS011;26663;59.302;18.082;2022-11-12T13:13:00;8.73;;;2.47;;
17650;SDS011;26663;59.302;18.082;2022-11-12T13:24:07;6.90;;;2.22;;
17650;SDS011;26663;59.302;18.082;2022-11-12T13:31:27;6.65;;;2.20;;
17650;SDS011;26663;59.302;18.082;2022-11-12T13:38:51;9.90;;;2.17;;
17650;SDS011;26663;59.302;18.082;2022-11-12T13:42:20;8.20;;;1.73;;
17650;SDS011;26663;59.302;18.082;2022-11-12T13:46:05;8.75;;;2.55;;
17650;SDS011;26663;59.302;18.082;2022-11-12T13:49:47;7.07;;;2.15;;
17650;SDS011;26663;59.302;18.082;2022-11-12T13:53:16;9.85;;;2.58;;
17650;SDS011;26663;59.302;18.082;2022-11-12T13:56:46;7.30;;;1.80;;
17650;SDS011;26663;59.302;18.082;2022-11-12T14:00:24;13.60;;;2.40;;
17650;SDS011;26663;59.302;18.082;2022-11-12T14:03:49;9.90;;;1.98;;
17650;SDS011;26663;59.302;18.082;2022-11-12T14:07:18;7.90;;;2.20;;
17650;SDS011;26663;59.302;18.082;2022-11-12T14:10:57;4.60;;;2.47;;
17650;SDS011;26663;59.302;18.082;2022-11-12T14:14:37;5.25;;;2.22;;
17650;SDS011;26663;59.302;18.082;2022-11-12T14:18:25;9.23;;;2.03;;
17650;SDS011;26663;59.302;18.082;2022-11-12T14:21:57;9.45;;;2.40;;
17650;SDS011;26663;59.302;18.082;2022-11-12T14:25:23;7.47;;;1.90;;
17650;SDS011;26663;59.302;18.082;2022-11-12T14:28:54;10.15;;;2.20;;
17650;SDS011;26663;59.302;18.082;2022-11-12T14:32:19;11.95;;;2.05;;
17650;SDS011;26663;59.302;18.082;2022-11-12T14:35:43;4.25;;;1.83;;
17650;SDS011;26663;59.302;18.082;2022-11-12T14:39:08;7.20;;;2.30;;
17650;SDS011;26663;59.302;18.082;2022-11-12T14:42:33;7.28;;;2.55;;
17650;SDS011;26663;59.302;18.082;2022-11-12T14:45:57;8.35;;;2.15;;
17650;SDS011;26663;59.302;18.082;2022-11-12T14:49:26;7.28;;;2.42;;
17650;SDS011;26663;59.302;18.082;2022-11-12T14:53:00;15.00;;;2.72;;
17650;SDS011;26663;59.302;18.082;2022-11-12T14:56:29;10.23;;;2.58;;
17650;SDS011;26663;59.302;18.082;2022-11-12T14:59:57;7.25;;;2.40;;
17650;SDS011;26663;59.302;18.082;2022-11-12T15:03:23;3.88;;;2.25;;
17650;SDS011;26663;59.302;18.082;2022-11-12T15:06:53;9.18;;;2.08;;
17650;SDS011;26663;59.302;18.082;2022-11-12T15:10:29;6.95;;;2.05;;
17650;SDS011;26663;59.302;18.082;2022-11-12T15:13:56;9.50;;;2.35;;
17650;SDS011;26663;59.302;18.082;2022-11-12T15:17:28;13.02;;;2.13;;
17650;SDS011;26663;59.302;18.082;2022-11-12T15:21:03;9.07;;;2.10;;
17650;SDS011;26663;59.302;18.082;2022-11-12T15:24:36;5.35;;;2.25;;
17650;SDS011;26663;59.302;18.082;2022-11-12T15:28:11;4.50;;;2.03;;
17650;SDS011;26663;59.302;18.082;2022-11-12T15:31:41;9.32;;;2.30;;
17650;SDS011;26663;59.302;18.082;2022-11-12T15:35:18;7.93;;;2.35;;
17650;SDS011;26663;59.302;18.082;2022-11-12T15:38:57;4.70;;;1.83;;
17650;SDS011;26663;59.302;18.082;2022-11-12T15:42:24;9.75;;;2.13;;
17650;SDS011;26663;59.302;18.082;2022-11-12T15:45:50;6.07;;;2.30;;
17650;SDS011;26663;59.302;18.082;2022-11-12T15:49:15;6.93;;;2.65;;
17650;SDS011;26663;59.302;18.082;2022-11-12T15:52:39;8.05;;;2.20;;
17650;SDS011;26663;59.302;18.082;2022-11-12T15:56:03;3.65;;;2.40;;
17650;SDS011;26663;59.302;18.082;2022-11-12T15:59:29;5.90;;;2.38;;
17650;SDS011;26663;59.302;18.082;2022-11-12T16:02:54;4.25;;;2.50;;
17650;SDS011;26663;59.302;18.082;2022-11-12T16:06:19;4.05;;;2.05;;
17650;SDS011;26663;59.302;18.082;2022-11-12T16:09:43;5.78;;;2.30;;
17650;SDS011;26663;59.302;18.082;2022-11-12T16:13:09;7.72;;;2.72;;
17650;SDS011;26663;59.302;18.082;2022-11-12T16:16:38;8.65;;;2.08;;
17650;SDS011;26663;59.302;18.082;2022-11-12T16:20:01;7.53;;;2.30;;
17650;SDS011;26663;59.302;18.082;2022-11-12T16:23:33;6.05;;;2.10;;
17650;SDS011;26663;59.302;18.082;2022-11-12T16:26:58;5.85;;;2.28;;
17650;SDS011;26663;59.302;18.082;2022-11-12T16:30:23;7.22;;;2.50;;
17650;SDS011;26663;59.302;18.082;2022-11-12T16:33:53;9.07;;;2.40;;
17650;SDS011;26663;59.302;18.082;2022-11-12T16:37:17;6.13;;;2.08;;
17650;SDS011;26663;59.302;18.082;2022-11-12T16:40:41;4.30;;;2.20;;
17650;SDS011;26663;59.302;18.082;2022-11-12T16:44:06;5.20;;;1.83;;
17650;SDS011;26663;59.302;18.082;2022-11-12T16:47:30;3.42;;;1.90;;
17650;SDS011;26663;59.302;18.082;2022-11-12T16:50:55;9.75;;;2.40;;
17650;SDS011;26663;59.302;18.082;2022-11-12T16:54:22;2.28;;;1.98;;
17650;SDS011;26663;59.302;18.082;2022-11-12T16:57:45;6.32;;;2.20;;
17650;SDS011;26663;59.302;18.082;2022-11-12T17:01:10;4.07;;;2.15;;
17650;SDS011;26663;59.302;18.082;2022-11-12T17:04:36;7.93;;;2.20;;
17650;SDS011;26663;59.302;18.082;2022-11-12T17:08:01;5.30;;;1.90;;
17650;SDS011;26663;59.302;18.082;2022-11-12T17:11:24;2.75;;;1.85;;
17650;SDS011;26663;59.302;18.082;2022-11-12T17:14:49;5.88;;;2.30;;
17650;SDS011;26663;59.302;18.082;2022-11-12T17:18:13;9.18;;;2.38;;
17650;SDS011;26663;59.302;18.082;2022-11-12T17:21:37;7.63;;;2.58;;
17650;SDS011;26663;59.302;18.082;2022-11-12T17:25:01;5.30;;;2.03;;
17650;SDS011;26663;59.302;18.082;2022-11-12T17:28:26;3.20;;;2.08;;
17650;SDS011;26663;59.302;18.082;2022-11-12T17:31:50;3.25;;;1.85;;
17650;SDS011;26663;59.302;18.082;2022-11-12T17:35:14;3.03;;;2.00;;
17650;SDS011;26663;59.302;18.082;2022-11-12T17:38:38;4.35;;;1.85;;
17650;SDS011;26663;59.302;18.082;2022-11-12T17:42:04;7.45;;;2.20;;
17650;SDS011;26663;59.302;18.082;2022-11-12T17:45:27;11.02;;;2.80;;
17650;SDS011;26663;59.302;18.082;2022-11-12T17:48:51;5.00;;;1.92;;
17650;SDS011;26663;59.302;18.082;2022-11-12T17:52:15;5.55;;;2.00;;
17650;SDS011;26663;59.302;18.082;2022-11-12T17:55:39;7.60;;;2.10;;
17650;SDS011;26663;59.302;18.082;2022-11-12T17:59:04;3.85;;;2.00;;
17650;SDS011;26663;59.302;18.082;2022-11-12T18:02:27;6.03;;;1.80;;
17650;SDS011;26663;59.302;18.082;2022-11-12T18:05:56;2.53;;;1.70;;
17650;SDS011;26663;59.302;18.082;2022-11-12T18:09:21;6.78;;;2.03;;
17650;SDS011;26663;59.302;18.082;2022-11-12T18:12:44;6.90;;;1.88;;
17650;SDS011;26663;59.302;18.082;2022-11-12T18:16:13;7.32;;;2.13;;
17650;SDS011;26663;59.302;18.082;2022-11-12T18:19:39;5.60;;;2.47;;
17650;SDS011;26663;59.302;18.082;2022-11-12T18:23:02;3.97;;;2.42;;
17650;SDS011;26663;59.302;18.082;2022-11-12T18:26:26;3.13;;;2.17;;
17650;SDS011;26663;59.302;18.082;2022-11-12T18:29:49;6.90;;;2.50;;
17650;SDS011;26663;59.302;18.082;2022-11-12T18:33:14;10.52;;;2.80;;
17650;SDS011;26663;59.302;18.082;2022-11-12T18:36:38;2.78;;;2.60;;
17650;SDS011;26663;59.302;18.082;2022-11-12T18:40:01;3.70;;;2.90;;
17650;SDS011;26663;59.302;18.082;2022-11-12T18:43:25;6.22;;;2.80;;
17650;SDS011;26663;59.302;18.082;2022-11-12T18:46:49;5.15;;;3.00;;
17650;SDS011;26663;59.302;18.082;2022-11-12T18:50:16;5.95;;;2.97;;
17650;SDS011;26663;59.302;18.082;2022-11-12T18:53:39;5.53;;;2.40;;
17650;SDS011;26663;59.302;18.082;2022-11-12T18:57:04;6.50;;;2.55;;
17650;SDS011;26663;59.302;18.082;2022-11-12T19:00:27;4.40;;;2.20;;
17650;SDS011;26663;59.302;18.082;2022-11-12T19:03:52;2.30;;;2.08;;
17650;SDS011;26663;59.302;18.082;2022-11-12T19:07:18;6.03;;;2.20;;
17650;SDS011;26663;59.302;18.082;2022-11-12T19:10:42;2.20;;;2.10;;
17650;SDS011;26663;59.302;18.082;2022-11-12T19:14:05;2.67;;;2.20;;
17650;SDS011;26663;59.302;18.082;2022-11-12T19:17:29;2.83;;;1.85;;
17650;SDS011;26663;59.302;18.082;2022-11-12T19:20:58;5.10;;;2.35;;
17650;SDS011;26663;59.302;18.082;2022-11-12T19:24:24;7.22;;;2.03;;
17650;SDS011;26663;59.302;18.082;2022-11-12T19:27:48;5.88;;;2.00;;
17650;SDS011;26663;59.302;18.082;2022-11-12T19:31:12;2.70;;;2.03;;
17650;SDS011;26663;59.302;18.082;2022-11-12T19:34:37;4.15;;;2.20;;
17650;SDS011;26663;59.302;18.082;2022-11-12T19:38:00;5.10;;;3.05;;
17650;SDS011;26663;59.302;18.082;2022-11-12T19:41:25;4.97;;;2.10;;
17650;SDS011;26663;59.302;18.082;2022-11-12T19:44:49;5.63;;;2.22;;
17650;SDS011;26663;59.302;18.082;2022-11-12T19:48:12;3.55;;;2.00;;
17650;SDS011;26663;59.302;18.082;2022-11-12T19:51:36;6.38;;;1.92;;
17650;SDS011;26663;59.302;18.082;2022-11-12T19:55:00;5.60;;;2.10;;
17650;SDS011;26663;59.302;18.082;2022-11-12T19:58:25;2.90;;;2.10;;
17650;SDS011;26663;59.302;18.082;2022-11-12T20:01:49;2.80;;;1.88;;
17650;SDS011;26663;59.302;18.082;2022-11-12T20:05:13;5.75;;;2.58;;
17650;SDS011;26663;59.302;18.082;2022-11-12T20:08:37;5.20;;;2.67;;
17650;SDS011;26663;59.302;18.082;2022-11-12T20:12:01;4.75;;;2.50;;
17650;SDS011;26663;59.302;18.082;2022-11-12T20:15:26;5.80;;;2.28;;
17650;SDS011;26663;59.302;18.082;2022-11-12T20:18:51;5.13;;;2.58;;
17650;SDS011;26663;59.302;18.082;2022-11-12T20:22:16;3.55;;;2.13;;
17650;SDS011;26663;59.302;18.082;2022-11-12T20:25:39;5.43;;;2.67;;
17650;SDS011;26663;59.302;18.082;2022-11-12T20:29:03;2.00;;;1.90;;
17650;SDS011;26663;59.302;18.082;2022-11-12T20:32:28;5.63;;;2.30;;
17650;SDS011;26663;59.302;18.082;2022-11-12T20:35:51;6.65;;;2.05;;
17650;SDS011;26663;59.302;18.082;2022-11-12T20:39:15;3.42;;;2.10;;
17650;SDS011;26663;59.302;18.082;2022-11-12T20:42:39;4.28;;;2.20;;